createdAt,value
2023-03-14T00:01:49.842Z,16.63
2023-03-14T00:06:53.365Z,16.70
2023-03-14T00:11:55.460Z,18.25
2023-03-14T00:16:57.573Z,21.02
2023-03-14T00:22:01.122Z,24.23
2023-03-14T00:27:03.319Z,21.52
2023-03-14T00:32:05.519Z,17.27
2023-03-14T00:37:09.103Z,19.13
2023-03-14T00:42:11.261Z,20.77
2023-03-14T00:47:13.463Z,17.92
2023-03-14T00:52:16.986Z,22.92
2023-03-14T00:57:19.120Z,26.67
2023-03-14T01:02:21.320Z,19.27
2023-03-14T01:07:25.004Z,14.25
2023-03-14T01:12:28.852Z,16.25
2023-03-14T01:17:31.026Z,19.60
2023-03-14T01:22:34.682Z,15.05
2023-03-14T01:27:37.105Z,18.38
2023-03-14T01:32:39.670Z,17.25
2023-03-14T01:37:43.175Z,15.10
2023-03-14T01:42:54.963Z,17.05
2023-03-14T01:47:57.205Z,14.50
2023-03-14T01:53:01.386Z,10.18
2023-03-14T01:58:05.694Z,11.70
2023-03-14T02:03:12.240Z,11.50
2023-03-14T02:08:19.065Z,6.77
2023-03-14T02:13:23.440Z,7.22
2023-03-14T02:18:26.519Z,7.03
2023-03-14T02:23:36.541Z,5.88
2023-03-14T02:28:40.371Z,6.38
2023-03-14T02:33:42.783Z,5.45
2023-03-14T02:38:51.454Z,8.93
2023-03-14T02:43:54.981Z,7.25
2023-03-14T02:49:02.993Z,5.40
2023-03-14T02:54:05.304Z,7.57
2023-03-14T02:59:08.835Z,11.93
2023-03-14T03:04:10.932Z,10.38
2023-03-14T03:09:13.090Z,7.18
2023-03-14T03:14:16.658Z,11.57
2023-03-14T03:19:18.869Z,12.52
2023-03-14T03:24:20.956Z,9.68
2023-03-14T03:29:24.543Z,8.55
2023-03-14T03:34:28.190Z,10.95
2023-03-14T03:39:30.396Z,8.60
2023-03-14T03:44:33.901Z,8.95
2023-03-14T03:49:36.158Z,8.80
2023-03-14T03:54:38.355Z,9.95
2023-03-14T03:59:41.925Z,8.90
2023-03-14T04:04:44.058Z,15.30
2023-03-14T04:09:46.471Z,12.25
2023-03-14T04:14:49.988Z,9.40
2023-03-14T04:19:52.125Z,13.13
2023-03-14T04:24:54.386Z,12.32
2023-03-14T04:29:57.964Z,9.27
2023-03-14T04:35:00.130Z,9.55
2023-03-14T04:40:02.294Z,11.05
2023-03-14T04:45:07.786Z,7.88
2023-03-14T04:50:11.128Z,8.77
2023-03-14T04:55:13.404Z,5.40
2023-03-14T05:00:17.667Z,7.18
2023-03-14T05:05:20.528Z,7.00
2023-03-14T05:10:22.735Z,9.30
2023-03-14T05:15:26.434Z,8.13
2023-03-14T05:20:28.552Z,10.60
2023-03-14T05:25:32.569Z,16.23
2023-03-14T05:30:36.196Z,9.57
2023-03-14T05:35:38.531Z,7.22
2023-03-14T05:40:40.602Z,6.05
2023-03-14T05:45:44.316Z,12.35
2023-03-14T05:50:46.468Z,8.85
2023-03-14T05:55:48.674Z,5.90
2023-03-14T06:00:52.739Z,5.10
2023-03-14T06:05:55.073Z,7.57
2023-03-14T06:10:58.832Z,5.55
2023-03-14T06:16:02.424Z,6.75
2023-03-14T06:21:04.903Z,8.70
2023-03-14T06:26:07.489Z,10.00
2023-03-14T06:31:11.162Z,7.07
2023-03-14T06:36:13.354Z,8.05
2023-03-14T06:41:15.581Z,4.95
2023-03-14T06:46:19.678Z,8.85
2023-03-14T06:51:22.661Z,6.82
2023-03-14T06:56:24.899Z,11.45
2023-03-14T07:01:30.897Z,8.90
2023-03-14T07:06:34.050Z,8.43
2023-03-14T07:11:36.124Z,9.13
2023-03-14T07:16:39.736Z,6.20
2023-03-14T07:21:41.913Z,4.40
2023-03-14T07:26:44.034Z,5.60
2023-03-14T07:31:47.560Z,5.43
2023-03-14T07:36:49.719Z,6.13
2023-03-14T07:41:51.980Z,5.80
2023-03-14T07:46:55.711Z,7.68
2023-03-14T07:51:57.870Z,9.60
2023-03-14T07:57:00.055Z,6.45
2023-03-14T08:02:03.692Z,3.05
2023-03-14T08:07:06.020Z,3.75
2023-03-14T08:12:08.869Z,1.63
2023-03-14T08:17:12.679Z,1.85
2023-03-14T08:22:14.768Z,0.47
2023-03-14T08:27:16.935Z,1.75
2023-03-14T08:32:20.718Z,0.77
2023-03-14T08:37:26.952Z,2.88
2023-03-14T08:42:29.498Z,0.87
2023-03-14T08:47:33.478Z,1.83
2023-03-14T08:52:36.081Z,3.90
2023-03-14T08:57:38.389Z,3.28
2023-03-14T09:02:42.112Z,6.63
2023-03-14T09:07:44.357Z,3.67
2023-03-14T09:12:46.652Z,8.07
2023-03-14T09:17:50.260Z,5.38
2023-03-14T09:22:52.396Z,6.65
2023-03-14T09:27:54.679Z,9.25
2023-03-14T09:32:58.524Z,9.18
2023-03-14T09:38:00.677Z,8.60
2023-03-14T09:43:03.329Z,7.35
2023-03-14T09:48:14.157Z,12.13
2023-03-14T09:53:19.605Z,9.77
2023-03-14T09:58:23.285Z,8.35
2023-03-14T10:03:33.996Z,11.05
2023-03-14T10:08:41.138Z,14.27
2023-03-14T10:13:51.913Z,13.52
2023-03-14T10:19:03.645Z,11.38
2023-03-14T10:24:11.232Z,18.73
2023-03-14T10:29:14.076Z,7.18
2023-03-14T10:34:24.532Z,10.23
2023-03-14T10:39:38.942Z,15.18
2023-03-14T10:44:42.480Z,21.25
2023-03-14T10:49:46.268Z,11.48
2023-03-14T10:54:49.897Z,12.82
2023-03-14T10:59:53.172Z,21.63
2023-03-14T11:05:04.865Z,12.52
2023-03-14T11:10:16.365Z,16.85
2023-03-14T11:15:26.304Z,13.98
2023-03-14T11:20:39.581Z,17.45
2023-03-14T11:25:51.037Z,7.95
2023-03-14T11:30:55.294Z,13.93
2023-03-14T11:36:05.620Z,10.57
2023-03-14T11:41:16.037Z,10.57
2023-03-14T11:46:23.070Z,9.80
2023-03-14T11:51:32.928Z,12.82
2023-03-14T11:56:40.641Z,9.63
2023-03-14T12:01:55.541Z,10.95
2023-03-14T12:07:04.427Z,9.18
2023-03-14T12:12:11.910Z,5.22
2023-03-14T12:17:21.489Z,5.50
2023-03-14T12:22:28.665Z,8.75
2023-03-14T12:33:22.368Z,6.28
2023-03-14T12:38:39.308Z,8.80
2023-03-14T12:43:42.596Z,11.88
2023-03-14T12:48:47.032Z,6.50
2023-03-14T12:54:07.289Z,6.78
2023-03-14T12:59:30.550Z,6.30
2023-03-14T13:04:40.256Z,5.28
2023-03-14T13:10:11.360Z,5.93
2023-03-14T13:15:21.429Z,10.57
2023-03-14T13:20:30.813Z,11.45
2023-03-14T13:25:53.937Z,10.32
2023-03-14T13:31:00.320Z,5.20
2023-03-14T13:36:05.451Z,8.87
2023-03-14T13:41:26.668Z,7.68
2023-03-14T13:46:29.472Z,8.65
2023-03-14T13:51:33.689Z,11.77
2023-03-14T13:56:39.309Z,9.50
2023-03-14T14:02:15.522Z,11.43
2023-03-14T14:07:20.184Z,10.18
2023-03-14T14:12:28.251Z,5.85
2023-03-14T14:17:40.944Z,4.70
2023-03-14T14:22:43.707Z,9.02
2023-03-14T14:27:50.898Z,7.88
2023-03-14T14:32:53.598Z,4.07
2023-03-14T14:38:13.940Z,7.75
2023-03-14T14:43:22.207Z,6.30
2023-03-14T14:48:26.372Z,6.47
2023-03-14T14:53:45.048Z,10.07
2023-03-14T14:58:50.523Z,11.30
2023-03-14T15:03:56.057Z,5.63
2023-03-14T15:08:58.870Z,8.75
2023-03-14T15:14:14.991Z,11.13
2023-03-14T15:19:25.500Z,9.40
2023-03-14T15:24:28.102Z,8.25
2023-03-14T15:29:31.933Z,8.32
2023-03-14T15:34:48.236Z,10.52
2023-03-14T15:39:50.559Z,7.47
2023-03-14T15:44:54.633Z,9.05
2023-03-14T15:49:57.104Z,8.25
2023-03-14T15:54:59.531Z,2.47
2023-03-14T16:00:08.583Z,5.55
2023-03-14T16:05:11.973Z,8.75
2023-03-14T16:10:16.232Z,9.70
2023-03-14T16:15:20.810Z,4.40
2023-03-14T16:20:25.577Z,8.35
2023-03-14T16:25:29.166Z,6.55
2023-03-14T16:30:35.939Z,7.93
2023-03-14T16:35:41.660Z,5.93
2023-03-14T16:40:55.965Z,6.40
2023-03-14T16:46:10.203Z,3.45
2023-03-14T16:51:21.657Z,7.22
2023-03-14T16:56:31.226Z,4.68
2023-03-14T17:01:42.658Z,7.50
2023-03-14T17:06:45.292Z,4.57
2023-03-14T17:11:48.174Z,5.38
2023-03-14T17:17:05.119Z,5.93
2023-03-14T17:22:23.247Z,5.90
2023-03-14T17:27:31.211Z,7.47
2023-03-14T17:32:57.467Z,3.85
2023-03-14T17:38:13.616Z,5.03
2023-03-14T17:43:50.060Z,4.55
2023-03-14T17:49:05.560Z,4.47
2023-03-14T17:54:15.578Z,5.25
2023-03-14T17:59:22.619Z,4.38
2023-03-14T18:09:43.436Z,16.73
2023-03-14T18:14:50.967Z,10.52
2023-03-14T18:20:09.925Z,7.63
2023-03-14T18:25:19.080Z,7.32
2023-03-14T18:30:31.327Z,9.52
2023-03-14T18:36:13.333Z,10.32
2023-03-14T19:05:34.475Z,4.43
2023-03-14T19:11:36.352Z,4.13
2023-03-14T19:17:19.406Z,4.13
2023-03-14T19:29:02.943Z,2.42
2023-03-14T19:34:05.103Z,4.97
2023-03-14T19:39:07.465Z,7.95
2023-03-14T19:44:10.999Z,6.85
2023-03-14T19:49:13.227Z,7.60
2023-03-14T19:54:15.845Z,5.47
2023-03-14T19:59:19.577Z,10.48
2023-03-14T20:04:21.713Z,18.75
2023-03-14T20:09:23.816Z,11.27
2023-03-14T20:14:27.460Z,4.40
2023-03-14T20:19:29.912Z,5.85
2023-03-14T20:24:32.113Z,4.93
2023-03-14T20:29:36.302Z,3.67
2023-03-14T20:34:38.717Z,4.55
2023-03-14T20:39:41.555Z,3.55
2023-03-14T20:44:45.668Z,4.28
2023-03-14T20:49:47.838Z,5.68
2023-03-14T20:54:49.951Z,4.80
2023-03-14T20:59:53.659Z,4.60
2023-03-14T21:04:57.685Z,5.30
2023-03-14T21:10:00.048Z,7.45
2023-03-14T21:15:04.194Z,5.43
2023-03-14T21:20:08.231Z,14.35
2023-03-14T21:25:10.758Z,8.95
2023-03-14T21:30:15.385Z,4.22
2023-03-14T21:35:17.801Z,6.57
2023-03-14T21:40:20.020Z,7.45
2023-03-14T21:45:25.292Z,4.90
2023-03-14T21:50:27.870Z,5.57
2023-03-14T21:55:30.057Z,3.80
2023-03-14T22:00:33.880Z,7.53
2023-03-14T22:05:35.988Z,3.58
2023-03-14T22:10:44.041Z,7.22
2023-03-14T22:15:50.260Z,5.70
2023-03-14T22:20:52.584Z,5.63
2023-03-14T22:25:54.896Z,5.47
2023-03-14T22:30:58.490Z,5.68
2023-03-14T22:36:01.346Z,7.35
2023-03-14T22:41:04.957Z,8.75
2023-03-14T22:46:09.638Z,6.07
2023-03-14T22:51:13.485Z,4.75
2023-03-14T22:56:15.587Z,9.85
2023-03-14T23:01:19.567Z,6.53
2023-03-14T23:06:21.883Z,8.35
2023-03-14T23:11:24.071Z,7.22
2023-03-14T23:16:38.002Z,10.90
2023-03-14T23:21:42.848Z,5.10
2023-03-14T23:26:44.967Z,7.00
2023-03-14T23:31:48.575Z,11.07
2023-03-14T23:36:50.809Z,6.57
2023-03-14T23:41:52.892Z,8.68
2023-03-14T23:46:56.572Z,9.95
2023-03-14T23:51:58.734Z,8.07
2023-03-14T23:57:04.277Z,8.00
